Time;durP1;ratioP1;P1;durP2;ratioP2;P2;SDS_P1;SDS_P2;PMS_P1;PMS_P2;Temp;Humidity;BMP_temperature;BMP_pressure;BME280_temperature;BME280_humidity;BME280_pressure;Samples;Min_cycle;Max_cycle;Signal;HPM_P1;HPM_P2
2022/10/27 00:00:51;;;;;;;7.18;2.88;;;;;;;12.39;100.00;101948.25;5258926;28;20090;-69
2022/10/27 00:03:22;;;;;;;5.03;2.70;;;;;;;12.42;100.00;101956.09;5258017;28;20075;-69
2022/10/27 00:05:54;;;;;;;4.22;2.50;;;;;;;12.37;100.00;101953.75;5255787;28;20386;-69
2022/10/27 00:08:25;;;;;;;5.88;2.60;;;;;;;12.42;100.00;101950.75;5258682;28;20051;-69
2022/10/27 00:11:01;;;;;;;6.03;2.50;;;;;;;12.41;100.00;101959.75;5260309;28;20109;-69
2022/10/27 00:13:34;;;;;;;5.97;2.63;;;;;;;12.27;100.00;101953.50;5259130;28;20093;-69
2022/10/27 00:16:10;;;;;;;6.68;2.78;;;;;;;12.26;100.00;101959.78;5258155;28;20052;-69
2022/10/27 00:18:42;;;;;;;5.72;2.80;;;;;;;12.40;100.00;101960.69;5253717;28;20501;-69
2022/10/27 00:21:16;;;;;;;4.57;2.58;;;;;;;12.27;100.00;101957.97;5258831;28;20096;-68
2022/10/27 00:23:49;;;;;;;6.65;2.92;;;;;;;12.34;100.00;101960.13;5259674;28;20464;-70
2022/10/27 00:26:21;;;;;;;6.00;2.80;;;;;;;12.32;100.00;101962.06;5258938;28;20024;-69
2022/10/27 00:28:52;;;;;;;6.47;2.60;;;;;;;12.23;100.00;101967.16;5255240;28;20455;-69
2022/10/27 00:31:23;;;;;;;7.38;2.72;;;;;;;12.16;100.00;101959.53;5252126;28;20425;-69
2022/10/27 00:33:55;;;;;;;7.78;3.30;;;;;;;12.14;100.00;101973.97;5257960;28;20439;-70
2022/10/27 00:36:26;;;;;;;6.22;2.88;;;;;;;12.09;100.00;101968.06;5246388;28;20370;-70
2022/10/27 00:38:58;;;;;;;8.00;3.13;;;;;;;12.11;100.00;101974.16;5253778;28;20392;-70
2022/10/27 00:41:35;;;;;;;4.50;2.40;;;;;;;12.03;100.00;101961.28;5257629;28;20412;-69
2022/10/27 00:44:25;;;;;;;4.97;2.65;;;;;;;12.14;100.00;101972.16;5248008;28;20041;-70
2022/10/27 00:47:00;;;;;;;7.65;3.10;;;;;;;12.05;100.00;101972.75;5257534;28;20021;-71
2022/10/27 00:49:54;;;;;;;7.43;3.03;;;;;;;12.04;100.00;101978.19;5257166;28;20115;-69
2022/10/27 00:52:30;;;;;;;9.43;3.15;;;;;;;12.06;100.00;101981.63;5257699;28;20482;-71
2022/10/27 00:55:07;;;;;;;4.97;2.40;;;;;;;12.00;100.00;101979.34;5257795;28;20090;-72
2022/10/27 00:57:40;;;;;;;7.88;2.90;;;;;;;12.18;100.00;101983.53;5258796;28;20083;-70
2022/10/27 01:00:12;;;;;;;7.55;2.67;;;;;;;12.14;100.00;101974.84;5258238;28;20116;-70
2022/10/27 01:02:44;;;;;;;10.82;3.33;;;;;;;12.12;100.00;101976.75;5257044;28;20064;-70
2022/10/27 01:05:21;;;;;;;6.88;3.00;;;;;;;12.11;100.00;101988.41;5257789;28;20478;-69
2022/10/27 01:07:57;;;;;;;7.15;3.03;;;;;;;12.23;100.00;101977.84;5244250;28;20029;-71
2022/10/27 01:10:29;;;;;;;9.00;3.72;;;;;;;12.17;100.00;101979.13;5257981;28;20483;-70
2022/10/27 01:13:01;;;;;;;7.97;2.97;;;;;;;12.30;100.00;101981.84;5259035;28;20071;-70
2022/10/27 01:15:39;;;;;;;7.07;3.47;;;;;;;12.25;100.00;101983.97;5254426;28;20486;-70
2022/10/27 01:18:25;;;;;;;7.05;2.88;;;;;;;12.28;100.00;101987.31;5249888;28;20437;-71
2022/10/27 01:21:02;;;;;;;8.07;3.30;;;;;;;12.38;100.00;101990.22;5254464;28;20131;-70
2022/10/27 01:24:06;;;;;;;7.18;3.00;;;;;;;12.41;100.00;101989.19;5258342;28;20031;-70
2022/10/27 01:26:49;;;;;;;9.52;3.13;;;;;;;12.43;100.00;101987.28;5225829;28;20048;-69
2022/10/27 01:29:56;;;;;;;10.02;4.07;;;;;;;12.50;100.00;101985.88;5256648;28;20032;-69
2022/10/27 01:32:37;;;;;;;5.13;3.33;;;;;;;12.46;100.00;101985.22;5254062;28;20079;-70
2022/10/27 01:35:20;;;;;;;7.32;3.60;;;;;;;12.57;100.00;101992.56;5252940;28;20107;-70
2022/10/27 01:38:15;;;;;;;9.95;3.60;;;;;;;12.55;100.00;101983.78;5256646;28;20017;-70
2022/10/27 01:40:55;;;;;;;8.50;3.20;;;;;;;12.52;100.00;101986.63;5257060;28;20024;-71
2022/10/27 01:43:29;;;;;;;10.23;3.53;;;;;;;12.62;100.00;101998.47;5257425;28;20028;-71
2022/10/27 01:46:03;;;;;;;6.47;3.45;;;;;;;12.54;100.00;101987.38;5256739;28;20036;-70
2022/10/27 01:48:36;;;;;;;7.68;3.08;;;;;;;12.66;100.00;101989.28;5255662;28;20439;-70
2022/10/27 01:51:08;;;;;;;8.05;3.60;;;;;;;12.72;100.00;101994.19;5254777;28;20084;-70
2022/10/27 01:53:46;;;;;;;11.20;3.78;;;;;;;12.64;100.00;101988.50;5256683;28;20099;-70
2022/10/27 01:56:32;;;;;;;6.30;3.10;;;;;;;12.67;100.00;101985.63;5257614;28;20041;-70
2022/10/27 01:59:31;;;;;;;8.27;3.10;;;;;;;12.73;100.00;101984.34;5249256;28;20678;-70
2022/10/27 02:02:42;;;;;;;6.88;2.92;;;;;;;12.72;100.00;101988.84;5245500;28;20035;-70
2022/10/27 02:05:42;;;;;;;6.65;3.00;;;;;;;12.64;100.00;101985.84;5244940;28;20048;-70
2022/10/27 02:08:23;;;;;;;9.27;3.38;;;;;;;12.71;100.00;101978.22;5249989;28;20116;-71
2022/10/27 02:11:00;;;;;;;7.75;3.08;;;;;;;12.63;100.00;101980.56;5256674;28;20031;-70
2022/10/27 02:13:36;;;;;;;7.53;3.63;;;;;;;12.64;100.00;101979.63;5256307;28;20056;-70
2022/10/27 02:16:11;;;;;;;7.57;3.22;;;;;;;12.68;100.00;101984.66;5248971;28;20033;-70
2022/10/27 02:19:00;;;;;;;8.68;3.25;;;;;;;12.58;100.00;101975.53;5255201;28;20029;-69
2022/10/27 02:21:34;;;;;;;9.20;3.55;;;;;;;12.53;100.00;101981.19;5257092;28;20360;-71
2022/10/27 02:24:06;;;;;;;6.57;3.08;;;;;;;12.67;100.00;101977.56;5256975;28;20017;-70
2022/10/27 02:26:43;;;;;;;6.60;3.38;;;;;;;12.61;100.00;101966.44;5254187;28;20052;-70
2022/10/27 02:29:21;;;;;;;7.88;3.55;;;;;;;12.59;100.00;101961.19;5253154;28;20060;-70
2022/10/27 02:31:55;;;;;;;7.80;3.30;;;;;;;12.50;100.00;101965.34;5253793;28;20364;-70
2022/10/27 02:34:28;;;;;;;6.88;3.28;;;;;;;12.58;100.00;101967.50;5256978;28;20463;-71
2022/10/27 02:36:59;;;;;;;9.32;3.60;;;;;;;12.47;100.00;101962.88;5255060;28;20035;-71
2022/10/27 02:39:31;;;;;;;6.95;3.65;;;;;;;12.46;100.00;101971.00;5256328;28;20483;-70
2022/10/27 02:42:03;;;;;;;6.88;3.63;;;;;;;12.43;100.00;101969.38;5256851;28;20493;-69
2022/10/27 02:44:34;;;;;;;7.35;3.72;;;;;;;12.40;100.00;101972.25;5256443;28;20032;-70
2022/10/27 02:47:06;;;;;;;10.30;3.80;;;;;;;12.48;100.00;101963.72;5252092;28;20025;-70
2022/10/27 02:49:37;;;;;;;6.78;3.72;;;;;;;12.43;100.00;101960.50;5255206;28;20025;-69
2022/10/27 02:52:09;;;;;;;8.32;3.50;;;;;;;12.33;100.00;101958.44;5256148;28;20391;-70
2022/10/27 02:54:41;;;;;;;6.47;3.40;;;;;;;12.33;100.00;101966.47;5254375;28;20036;-70
2022/10/27 02:57:17;;;;;;;7.63;3.38;;;;;;;12.35;100.00;101958.34;5256061;28;20475;-70
2022/10/27 02:59:48;;;;;;;5.15;3.15;;;;;;;12.28;100.00;101954.34;5256330;28;20028;-70
2022/10/27 03:02:21;;;;;;;8.23;3.70;;;;;;;12.41;100.00;101962.44;5255982;28;20017;-70
2022/10/27 03:04:53;;;;;;;9.90;3.40;;;;;;;12.32;100.00;101954.03;5254732;28;20079;-70
2022/10/27 03:07:24;;;;;;;7.32;3.63;;;;;;;12.23;100.00;101951.09;5260761;28;20040;-70
2022/10/27 03:09:55;;;;;;;7.45;3.40;;;;;;;12.32;100.00;101945.16;5260958;28;20459;-70
2022/10/27 03:12:26;;;;;;;10.40;3.67;;;;;;;12.20;100.00;101937.94;5260148;28;20036;-69
2022/10/27 03:14:58;;;;;;;7.78;3.50;;;;;;;12.32;100.00;101931.78;5256837;28;20526;-70
2022/10/27 03:17:29;;;;;;;7.25;3.72;;;;;;;12.18;100.00;101924.66;5252495;28;20506;-70
2022/10/27 03:20:00;;;;;;;7.63;3.60;;;;;;;12.20;100.00;101932.59;5248950;28;20025;-70
2022/10/27 03:22:36;;;;;;;8.07;3.15;;;;;;;12.18;100.00;101922.00;5261070;28;20025;-70
2022/10/27 03:25:10;;;;;;;6.65;3.42;;;;;;;12.19;100.00;101930.88;5255176;28;20061;-70
2022/10/27 03:27:42;;;;;;;;;;;;;;;12.25;100.00;101925.94;5261212;28;20139;-70
2022/10/27 03:30:15;;;;;;;9.55;3.30;;;;;;;12.19;100.00;101928.19;5243884;28;20424;-70
2022/10/27 03:32:48;;;;;;;5.60;2.93;;;;;;;12.17;100.00;101925.59;5259404;28;20116;-70
2022/10/27 03:35:20;;;;;;;8.00;3.20;;;;;;;12.15;100.00;101935.56;5257681;28;20032;-70
2022/10/27 03:37:58;;;;;;;7.75;3.03;;;;;;;12.11;100.00;101926.03;5260628;28;20027;-70
2022/10/27 03:40:30;;;;;;;8.80;3.50;;;;;;;12.17;100.00;101928.28;5256087;28;20021;-70
2022/10/27 03:43:01;;;;;;;7.40;3.00;;;;;;;12.11;100.00;101928.69;5260714;28;20374;-70
2022/10/27 03:45:33;;;;;;;6.35;3.33;;;;;;;12.10;100.00;101924.28;5257709;28;20040;-71
2022/10/27 03:48:07;;;;;;;8.60;3.15;;;;;;;12.10;100.00;101924.28;5255616;28;20048;-70
2022/10/27 03:50:38;;;;;;;7.80;2.60;;;;;;;12.16;100.00;101922.09;5259856;28;20061;-71
2022/10/27 03:53:10;;;;;;;6.70;2.80;;;;;;;12.13;100.00;101918.75;5259236;28;20025;-70
2022/10/27 03:55:41;;;;;;;5.25;2.92;;;;;;;12.12;100.00;101909.03;5247880;28;20112;-70
2022/10/27 03:58:15;;;;;;;8.07;2.80;;;;;;;12.08;100.00;101904.81;5259923;28;20037;-70
2022/10/27 04:00:46;;;;;;;6.65;2.83;;;;;;;11.98;100.00;101909.91;5258303;28;20036;-70
2022/10/27 04:03:17;;;;;;;8.73;2.65;;;;;;;11.96;100.00;101912.66;5259491;28;20024;-70
2022/10/27 04:05:49;;;;;;;5.55;2.85;;;;;;;11.98;100.00;101914.41;5249676;28;20024;-69
2022/10/27 04:08:20;;;;;;;5.97;2.42;;;;;;;11.98;100.00;101919.75;5259846;28;20091;-70
2022/10/27 04:10:52;;;;;;;6.53;3.28;;;;;;;11.93;100.00;101917.38;5258426;28;20091;-70
2022/10/27 04:13:23;;;;;;;6.20;3.00;;;;;;;11.95;100.00;101928.84;5247106;28;20155;-70
2022/10/27 04:15:58;;;;;;;9.63;2.95;;;;;;;11.99;100.00;101924.16;5254311;28;20113;-70
2022/10/27 04:18:29;;;;;;;7.95;2.97;;;;;;;12.01;100.00;101938.28;5259510;28;20024;-70
2022/10/27 04:21:05;;;;;;;6.70;2.45;;;;;;;11.99;100.00;101929.50;5247201;28;20025;-70
2022/10/27 04:23:36;;;;;;;6.93;2.80;;;;;;;11.87;100.00;101934.66;5258954;28;20028;-70
2022/10/27 04:26:08;;;;;;;6.90;2.92;;;;;;;12.00;100.00;101939.22;5256071;28;20032;-70
2022/10/27 04:28:39;;;;;;;5.38;2.80;;;;;;;11.93;100.00;101936.97;5259280;28;20131;-70
2022/10/27 04:31:11;;;;;;;5.80;2.70;;;;;;;11.85;100.00;101936.56;5259039;28;20024;-70
2022/10/27 04:33:42;;;;;;;4.93;2.60;;;;;;;11.90;100.00;101936.31;5258394;28;20041;-69
2022/10/27 04:36:13;;;;;;;6.68;2.65;;;;;;;11.76;100.00;101938.00;5257847;28;20033;-70
2022/10/27 04:38:48;;;;;;;7.57;2.92;;;;;;;11.80;100.00;101943.19;5259567;28;20060;-70
2022/10/27 04:41:20;;;;;;;5.70;2.88;;;;;;;11.83;100.00;101938.50;5248770;28;20021;-70
2022/10/27 04:43:51;;;;;;;6.25;3.40;;;;;;;11.87;100.00;101945.34;5259421;28;20024;-70
2022/10/27 04:46:22;;;;;;;6.63;3.00;;;;;;;11.84;100.00;101942.88;5256550;28;20056;-70
2022/10/27 04:48:54;;;;;;;8.88;3.13;;;;;;;11.94;100.00;101940.50;5256463;28;20025;-70
2022/10/27 04:51:25;;;;;;;7.80;3.08;;;;;;;11.80;100.00;101938.69;5257578;28;20041;-70
2022/10/27 04:53:57;;;;;;;7.18;3.47;;;;;;;11.81;100.00;101943.06;5248826;28;20037;-70
2022/10/27 04:56:28;;;;;;;8.60;3.67;;;;;;;11.80;100.00;101944.03;5257780;28;20021;-70
2022/10/27 04:58:59;;;;;;;8.73;3.63;;;;;;;11.84;100.00;101940.19;5259067;28;20326;-70
2022/10/27 05:01:30;;;;;;;8.38;3.67;;;;;;;11.89;100.00;101934.53;5258123;28;20631;-70
2022/10/27 05:04:02;;;;;;;8.85;3.80;;;;;;;11.88;100.00;101947.06;5256573;28;20521;-70
2022/10/27 05:06:33;;;;;;;8.55;3.60;;;;;;;11.96;100.00;101947.44;5258562;28;20032;-70
2022/10/27 05:09:04;;;;;;;8.40;3.72;;;;;;;11.96;100.00;101936.75;5258526;28;20025;-70
2022/10/27 05:11:36;;;;;;;10.52;3.97;;;;;;;11.96;100.00;101936.75;5250635;28;20053;-71
2022/10/27 05:14:07;;;;;;;7.57;3.63;;;;;;;12.02;100.00;101937.31;5259286;28;20075;-71
2022/10/27 05:16:38;;;;;;;8.10;3.55;;;;;;;12.00;100.00;101944.59;5249531;28;20027;-70
2022/10/27 05:19:09;;;;;;;10.63;3.78;;;;;;;12.01;100.00;101935.63;5255180;28;20249;-65
2022/10/27 05:21:41;;;;;;;8.77;3.55;;;;;;;12.09;100.00;101931.47;5253785;28;20036;-65
2022/10/27 05:24:12;;;;;;;8.88;3.83;;;;;;;12.13;100.00;101948.19;5247392;28;20029;-65
2022/10/27 05:26:43;;;;;;;8.55;3.80;;;;;;;12.13;100.00;101942.81;5250639;28;20029;-65
2022/10/27 05:29:14;;;;;;;7.50;3.80;;;;;;;12.13;100.00;101938.31;5255953;28;20055;-65
2022/10/27 05:31:46;;;;;;;9.13;4.20;;;;;;;12.14;100.00;101934.69;5256468;28;20025;-65
2022/10/27 05:34:17;;;;;;;7.15;3.55;;;;;;;12.15;100.00;101931.06;5255197;28;20104;-65
2022/10/27 05:36:50;;;;;;;9.20;3.83;;;;;;;12.16;100.00;101938.13;5258571;28;20017;-65
2022/10/27 05:39:21;;;;;;;7.15;3.08;;;;;;;12.10;100.00;101929.63;5255133;28;20458;-65
2022/10/27 05:41:52;;;;;;;6.05;3.22;;;;;;;12.19;100.00;101928.19;5258090;28;20039;-65
2022/10/27 05:44:23;;;;;;;8.77;3.80;;;;;;;12.10;100.00;101927.84;5257694;28;20074;-65
2022/10/27 05:46:55;;;;;;;6.13;3.15;;;;;;;12.20;100.00;101914.72;5253479;28;20033;-65
2022/10/27 05:49:26;;;;;;;7.32;3.17;;;;;;;12.11;100.00;101928.69;5257451;28;20083;-65
2022/10/27 05:51:57;;;;;;;8.23;3.60;;;;;;;12.10;100.00;101927.84;5236776;28;20037;-65
2022/10/27 05:54:29;;;;;;;6.05;3.38;;;;;;;12.12;100.00;101925.91;5228017;28;20033;-66
2022/10/27 05:57:00;;;;;;;6.78;3.50;;;;;;;12.07;100.00;101927.19;5236287;28;20048;-65
2022/10/27 05:59:31;;;;;;;7.72;3.35;;;;;;;12.03;100.00;101923.84;5234639;28;20029;-65
2022/10/27 06:02:02;;;;;;;5.90;3.40;;;;;;;12.14;100.00;101923.16;5236758;28;20029;-65
2022/10/27 06:04:34;;;;;;;10.23;4.18;;;;;;;12.05;100.00;101924.59;5231216;28;20290;-65
2022/10/27 06:07:05;;;;;;;6.80;3.65;;;;;;;12.06;100.00;101925.44;5236412;28;20037;-65
2022/10/27 06:09:36;;;;;;;7.70;3.92;;;;;;;12.04;100.00;101917.56;5230686;28;20530;-65
2022/10/27 06:12:07;;;;;;;7.65;3.90;;;;;;;12.14;100.00;101915.13;5229977;28;20112;-65
2022/10/27 06:14:39;;;;;;;9.75;4.47;;;;;;;12.14;100.00;101923.16;5230077;28;20076;-65
2022/10/27 06:17:10;;;;;;;12.90;4.60;;;;;;;12.07;100.00;101914.66;5230281;28;20029;-65
2022/10/27 06:19:41;;;;;;;8.90;4.70;;;;;;;12.12;100.00;101914.38;5236297;28;20030;-65
2022/10/27 06:22:12;;;;;;;15.05;6.22;;;;;;;12.14;100.00;101913.31;5225962;28;20029;-65
2022/10/27 06:24:44;;;;;;;12.85;5.65;;;;;;;12.05;100.00;101916.56;5233566;28;20028;-65
2022/10/27 06:27:15;;;;;;;9.45;4.38;;;;;;;12.12;100.00;101917.06;5232665;28;20025;-65
2022/10/27 06:29:46;;;;;;;10.15;4.03;;;;;;;12.19;100.00;101912.13;5228518;28;20029;-65
2022/10/27 06:32:17;;;;;;;10.93;4.30;;;;;;;12.14;100.00;101902.59;5235468;28;20823;-65
2022/10/27 06:34:49;;;;;;;6.88;3.70;;;;;;;12.18;100.00;101907.72;5233505;28;20029;-65
2022/10/27 06:37:20;;;;;;;7.78;4.10;;;;;;;12.11;100.00;101908.13;5232631;28;20045;-65
2022/10/27 06:39:54;;;;;;;7.22;3.65;;;;;;;12.08;100.00;101903.00;5234909;28;20034;-65
2022/10/27 06:42:25;;;;;;;7.50;3.78;;;;;;;12.02;100.00;101897.19;5235340;28;20520;-65
2022/10/27 06:44:57;;;;;;;7.13;3.50;;;;;;;12.00;100.00;101902.63;5236598;28;20033;-65
2022/10/27 06:47:28;;;;;;;6.65;3.50;;;;;;;12.01;100.00;101900.84;5232527;28;20025;-65
2022/10/27 06:49:59;;;;;;;7.63;3.78;;;;;;;11.95;100.00;101894.06;5232742;28;20056;-65
2022/10/27 06:52:35;;;;;;;5.25;3.38;;;;;;;11.94;100.00;101898.53;5252476;28;20031;-65
2022/10/27 06:55:08;;;;;;;6.13;3.58;;;;;;;12.09;100.00;101890.47;5254680;28;20029;-65
2022/10/27 06:57:40;;;;;;;10.32;4.22;;;;;;;12.11;100.00;101880.53;5252959;28;20368;-62
2022/10/27 07:00:12;;;;;;;6.05;3.40;;;;;;;12.04;100.00;101888.13;5256347;28;20032;-62
2022/10/27 07:02:44;;;;;;;6.55;3.28;;;;;;;11.97;100.00;101892.16;5254357;28;20029;-62
2022/10/27 07:05:15;;;;;;;5.82;3.65;;;;;;;12.02;100.00;101892.69;5255901;28;20509;-63
2022/10/27 07:07:47;;;;;;;7.05;3.80;;;;;;;12.05;100.00;101891.66;5255347;28;20029;-62
2022/10/27 07:10:20;;;;;;;7.63;4.55;;;;;;;11.98;100.00;101890.34;5250545;28;20028;-63
2022/10/27 07:12:56;;;;;;;7.38;3.95;;;;;;;12.03;100.00;101904.28;5254877;28;20079;-63
2022/10/27 07:15:32;;;;;;;9.85;4.70;;;;;;;12.09;100.00;101903.88;5255933;28;20341;-63
2022/10/27 07:18:06;;;;;;;9.07;4.55;;;;;;;11.98;100.00;101904.56;5249354;28;20040;-63
2022/10/27 07:20:38;;;;;;;7.45;5.10;;;;;;;12.07;100.00;101903.94;5256332;28;20048;-63
2022/10/27 07:23:10;;;;;;;7.47;4.20;;;;;;;12.07;100.00;101901.28;5255413;28;20522;-63
2022/10/27 07:25:41;;;;;;;7.45;4.40;;;;;;;11.93;100.00;101904.03;5255550;28;20433;-64
2022/10/27 07:28:13;;;;;;;7.45;3.92;;;;;;;12.00;100.00;101899.97;5255353;28;20029;-63
2022/10/27 07:30:46;;;;;;;9.18;4.07;;;;;;;12.02;100.00;101891.84;5252058;28;20036;-63
2022/10/27 07:33:17;;;;;;;8.20;4.10;;;;;;;12.06;100.00;101893.34;5252043;28;20424;-63
2022/10/27 07:35:50;;;;;;;5.75;3.97;;;;;;;12.03;100.00;101897.09;5254639;28;20027;-63
2022/10/27 07:38:21;;;;;;;10.07;3.80;;;;;;;12.12;100.00;101899.16;5251120;28;20575;-63
2022/10/27 07:40:55;;;;;;;7.22;4.28;;;;;;;12.06;100.00;101890.69;5254875;28;20112;-64
2022/10/27 07:43:26;;;;;;;6.22;3.70;;;;;;;12.07;100.00;101895.94;5254740;28;20021;-63
2022/10/27 07:45:57;;;;;;;8.70;4.10;;;;;;;12.25;100.00;101901.00;5253918;28;20036;-63
2022/10/27 07:48:28;;;;;;;8.68;3.70;;;;;;;12.24;100.00;101902.84;5253281;28;20479;-63
2022/10/27 07:51:00;;;;;;;6.80;3.70;;;;;;;12.28;100.00;101907.03;5256570;28;20606;-63
2022/10/27 07:53:31;;;;;;;9.45;3.85;;;;;;;12.34;100.00;101911.13;5259785;28;20510;-63
2022/10/27 07:56:02;;;;;;;7.10;3.40;;;;;;;12.40;100.00;101912.53;5258087;28;20187;-64
2022/10/27 07:58:34;;;;;;;6.40;2.90;;;;;;;12.50;100.00;101913.59;5255823;28;20675;-63
2022/10/27 08:01:05;;;;;;;6.65;2.90;;;;;;;12.53;100.00;101900.88;5258832;28;20025;-63
2022/10/27 08:03:36;;;;;;;5.45;2.97;;;;;;;12.54;100.00;101899.03;5259783;28;20029;-63
2022/10/27 08:06:07;;;;;;;6.75;2.80;;;;;;;12.65;100.00;101899.19;5257837;28;20060;-63
2022/10/27 08:08:39;;;;;;;7.10;2.60;;;;;;;12.65;100.00;101885.78;5258719;28;20028;-63
2022/10/27 08:11:10;;;;;;;7.72;2.38;;;;;;;12.70;100.00;101886.34;5250663;28;20377;-63
2022/10/27 08:13:41;;;;;;;7.82;2.38;;;;;;;12.68;100.00;101904.34;5256977;28;20418;-63
2022/10/27 08:16:12;;;;;;;5.47;2.55;;;;;;;12.77;100.00;101896.63;5249887;28;20423;-63
2022/10/27 08:18:44;;;;;;;7.50;2.15;;;;;;;12.81;100.00;101887.41;5258681;28;20086;-64
2022/10/27 08:21:15;;;;;;;4.72;1.90;;;;;;;12.84;100.00;101877.34;5258540;28;20516;-63
2022/10/27 08:23:46;;;;;;;5.72;1.95;;;;;;;12.91;100.00;101880.47;5250583;28;20025;-63
2022/10/27 08:26:17;;;;;;;6.50;1.83;;;;;;;12.98;100.00;101884.41;5259379;28;20028;-63
2022/10/27 08:28:49;;;;;;;5.32;1.80;;;;;;;12.92;100.00;101885.72;5258122;28;20041;-63
2022/10/27 08:31:21;;;;;;;5.97;1.80;;;;;;;13.05;100.00;101883.03;5250071;28;20148;-64
2022/10/27 08:33:52;;;;;;;5.93;1.90;;;;;;;13.10;100.00;101888.91;5257164;28;20029;-63
2022/10/27 08:36:24;;;;;;;4.57;1.52;;;;;;;13.21;100.00;101889.97;5256740;28;20021;-63
2022/10/27 08:38:55;;;;;;;4.80;1.42;;;;;;;13.23;100.00;101890.72;5259300;28;20032;-63
2022/10/27 08:41:39;;;;;;;4.93;1.48;;;;;;;13.31;100.00;101877.69;5253701;28;20028;-63
2022/10/27 08:44:23;;;;;;;4.43;1.30;;;;;;;13.47;100.00;101883.63;5258897;28;20040;-63
2022/10/27 08:47:09;;;;;;;4.43;1.15;;;;;;;13.55;100.00;101877.72;5258636;28;20035;-66
2022/10/27 08:50:08;;;;;;;7.47;1.63;;;;;;;13.59;100.00;101879.22;5254658;28;20495;-63
2022/10/27 08:52:44;;;;;;;4.40;1.20;;;;;;;13.68;100.00;101875.00;5255237;28;20025;-63
2022/10/27 08:55:23;;;;;;;4.53;1.15;;;;;;;13.80;100.00;101859.84;5257404;28;20035;-63
2022/10/27 08:58:22;;;;;;;5.63;1.30;;;;;;;13.82;100.00;101860.56;5252657;28;20447;-64
2022/10/27 09:01:04;;;;;;;5.47;1.15;;;;;;;14.06;100.00;101852.53;5258738;28;20028;-63
2022/10/27 09:04:03;;;;;;;3.90;1.40;;;;;;;14.07;100.00;101844.34;5256468;28;20021;-65
2022/10/27 09:07:17;;;;;;;2.58;1.00;;;;;;;14.16;100.00;101839.28;5247514;28;20032;-64
2022/10/27 09:09:53;;;;;;;3.53;1.05;;;;;;;14.33;100.00;101844.22;5257772;28;20028;-64
2022/10/27 09:12:52;;;;;;;4.88;1.58;;;;;;;14.36;100.00;101845.81;5255975;28;20096;-64
2022/10/27 09:15:39;;;;;;;3.88;0.93;;;;;;;14.35;100.00;101838.72;5258435;28;20395;-63
2022/10/27 09:18:18;;;;;;;6.55;1.00;;;;;;;14.61;100.00;101845.66;5255051;28;20029;-64
2022/10/27 09:20:57;;;;;;;3.88;0.95;;;;;;;14.65;100.00;101847.13;5258180;28;20029;-64
2022/10/27 09:23:36;;;;;;;4.47;1.00;;;;;;;14.75;100.00;101847.28;5254991;28;20461;-63
2022/10/27 09:26:10;;;;;;;4.78;1.08;;;;;;;14.86;100.00;101831.16;5247811;28;20116;-64
2022/10/27 09:28:50;;;;;;;4.05;1.30;;;;;;;14.93;100.00;101838.75;5246610;28;20136;-63
2022/10/27 09:31:34;;;;;;;3.28;0.93;;;;;;;14.96;100.00;101833.97;5256968;28;20044;-64
2022/10/27 09:34:36;;;;;;;3.72;1.00;;;;;;;15.11;100.00;101831.91;5256933;28;20473;-64
2022/10/27 09:37:28;;;;;;;6.07;1.00;;;;;;;15.15;100.00;101830.69;5252272;28;20032;-65
2022/10/27 09:39:59;;;;;;;4.38;1.00;;;;;;;15.35;100.00;101830.91;5258019;28;20032;-65
2022/10/27 09:42:30;;;;;;;4.05;1.00;;;;;;;15.32;100.00;101821.22;5250768;28;20019;-65
2022/10/27 09:45:12;;;;;;;4.75;1.10;;;;;;;15.44;100.00;101825.63;5250382;28;20029;-65
2022/10/27 09:47:47;;;;;;;5.45;1.10;;;;;;;15.58;100.00;101811.03;5249282;28;20052;-65
2022/10/27 09:50:22;;;;;;;4.38;0.93;;;;;;;15.62;100.00;101817.03;5256188;28;20045;-65
2022/10/27 09:52:53;;;;;;;3.10;0.90;;;;;;;15.58;100.00;101812.88;5256074;28;20061;-65
2022/10/27 09:55:47;;;;;;;4.70;1.02;;;;;;;15.74;100.00;101820.56;5257734;28;20108;-65
2022/10/27 09:58:19;;;;;;;3.35;0.95;;;;;;;15.85;100.00;101823.22;5251851;28;20078;-65
2022/10/27 10:00:59;;;;;;;6.28;1.00;;;;;;;15.90;100.00;101821.00;5257608;28;20037;-65
2022/10/27 10:03:30;;;;;;;3.08;0.98;;;;;;;15.86;100.00;101830.31;5240847;28;20034;-65
2022/10/27 10:06:04;;;;;;;3.92;1.08;;;;;;;15.91;100.00;101825.41;5254423;28;20036;-65
2022/10/27 10:08:37;;;;;;;4.05;1.23;;;;;;;16.00;100.00;101821.09;5254106;28;21415;-66
2022/10/27 10:11:21;;;;;;;6.15;0.98;;;;;;;16.04;100.00;101812.63;5248314;28;20029;-65
2022/10/27 10:13:59;;;;;;;;;;;;;;;16.08;100.00;101799.75;5242995;28;20513;-65
2022/10/27 10:16:32;;;;;;;3.65;1.00;;;;;;;16.37;100.00;101791.88;5252435;28;19909;-65
2022/10/27 10:19:06;;;;;;;3.38;0.65;;;;;;;16.31;100.00;101791.56;5239779;28;20219;-65
2022/10/27 10:21:46;;;;;;;3.58;0.77;;;;;;;16.47;100.00;101794.63;5251655;28;20060;-65
2022/10/27 10:24:30;;;;;;;3.35;0.90;;;;;;;16.53;100.00;101793.25;5257669;28;20033;-65
2022/10/27 10:27:04;;;;;;;4.47;1.20;;;;;;;16.60;100.00;101792.56;5255129;28;20581;-65
2022/10/27 10:29:45;;;;;;;;;;;;;;;16.56;100.00;101795.69;5257705;28;20115;-65
2022/10/27 10:32:20;;;;;;;3.65;0.90;;;;;;;16.75;100.00;101800.31;5255959;28;19923;-65
2022/10/27 10:34:55;;;;;;;3.22;0.90;;;;;;;16.69;100.00;101795.47;5254886;28;20017;-65
2022/10/27 10:37:41;;;;;;;6.70;1.38;;;;;;;16.82;100.00;101801.53;5254026;28;20102;-65
2022/10/27 10:40:12;;;;;;;5.38;1.10;;;;;;;16.93;100.00;101779.88;5256780;28;20402;-65
2022/10/27 10:42:46;;;;;;;6.63;1.13;;;;;;;16.96;100.00;101773.34;5251903;28;20029;-65
2022/10/27 10:45:24;;;;;;;3.85;1.00;;;;;;;17.04;100.00;101774.34;5248177;28;20044;-65
2022/10/27 10:48:04;;;;;;;3.92;0.90;;;;;;;17.08;100.00;101774.09;5246522;28;20039;-66
2022/10/27 10:50:47;;;;;;;7.85;1.30;;;;;;;17.15;100.00;101775.25;5250870;28;20094;-66
2022/10/27 10:53:31;;;;;;;3.20;1.00;;;;;;;17.24;100.00;101774.44;5257142;28;20035;-66
2022/10/27 10:56:18;;;;;;;;;;;;;;;17.19;100.00;101779.38;5256052;28;20573;-66
2022/10/27 10:58:55;;;;;;;4.28;1.30;;;;;;;17.31;100.00;101770.16;5257308;28;20571;-65
2022/10/27 11:01:50;;;;;;;5.03;1.23;;;;;;;17.43;100.00;101768.19;5255119;28;20029;-65
2022/10/27 11:04:28;;;;;;;4.55;1.02;;;;;;;17.43;100.00;101760.97;5251399;28;20033;-65
2022/10/27 11:07:05;;;;;;;6.07;1.13;;;;;;;17.50;100.00;101773.91;5257006;28;20028;-66
2022/10/27 11:09:49;;;;;;;5.20;1.30;;;;;;;17.54;100.00;101769.91;5254957;28;20557;-66
2022/10/27 11:12:25;;;;;;;6.75;1.20;;;;;;;17.59;100.00;101778.47;5249190;28;20122;-66
2022/10/27 11:15:03;;;;;;;6.07;1.42;;;;;;;17.63;100.00;101772.63;5255603;28;20082;-65
2022/10/27 11:17:35;;;;;;;4.07;1.13;;;;;;;17.68;100.00;101769.53;5252621;28;20100;-65
2022/10/27 11:20:17;;;;;;;5.38;1.30;;;;;;;17.75;100.00;101767.09;5253854;28;20055;-65
2022/10/27 11:22:51;;;;;;;5.55;1.55;;;;;;;17.66;100.00;101760.72;5243562;28;20048;-65
2022/10/27 11:25:27;;;;;;;7.47;1.50;;;;;;;17.85;100.00;101767.97;5244045;28;20044;-66
2022/10/27 11:28:15;;;;;;;5.20;1.20;;;;;;;17.81;100.00;101767.41;5259349;28;20048;-66
2022/10/27 11:30:56;;;;;;;5.30;1.33;;;;;;;17.88;100.00;101769.56;5260036;28;20459;-66
2022/10/27 11:33:37;;;;;;;4.63;1.27;;;;;;;17.91;100.00;101758.44;5258702;28;20033;-67
2022/10/27 11:36:23;;;;;;;4.95;1.25;;;;;;;17.98;100.00;101759.59;5260731;28;20373;-65
2022/10/27 11:39:11;;;;;;;2.70;1.00;;;;;;;17.95;100.00;101760.75;5260696;28;20086;-65
2022/10/27 11:41:48;;;;;;;5.75;1.45;;;;;;;18.03;100.00;101754.63;5249624;28;20029;-66
2022/10/27 11:44:35;;;;;;;7.97;2.00;;;;;;;18.02;100.00;101742.09;5248882;28;20677;-66
2022/10/27 11:47:19;;;;;;;5.80;1.60;;;;;;;18.05;100.00;101740.97;5259733;28;20162;-66
2022/10/27 11:50:26;;;;;;;4.95;1.20;;;;;;;18.03;100.00;101752.75;5256371;28;20391;-66
2022/10/27 11:52:58;;;;;;;5.32;1.38;;;;;;;18.02;100.00;101751.06;5249822;28;20414;-66
2022/10/27 11:55:57;;;;;;;5.80;1.63;;;;;;;17.99;100.00;101751.34;5258322;28;20028;-66